createdAt,value
2017-07-30T00:01:29.081Z,3.90
2017-07-30T00:03:57.405Z,4.03
2017-07-30T00:06:24.958Z,4.93
2017-07-30T00:08:52.527Z,4.33
2017-07-30T00:11:20.086Z,4.40
2017-07-30T00:13:47.622Z,5.67
2017-07-30T00:16:15.171Z,4.37
2017-07-30T00:18:43.480Z,4.60
2017-07-30T00:21:11.060Z,3.97
2017-07-30T00:23:38.586Z,4.37
2017-07-30T00:26:06.179Z,3.97
2017-07-30T00:28:33.710Z,4.37
2017-07-30T00:31:01.295Z,4.20
2017-07-30T00:33:28.858Z,4.23
2017-07-30T00:35:56.410Z,4.10
2017-07-30T00:38:23.997Z,4.40
2017-07-30T00:40:51.527Z,4.07
2017-07-30T00:43:19.102Z,4.40
2017-07-30T00:45:46.761Z,4.33
2017-07-30T00:48:14.322Z,3.83
2017-07-30T00:50:41.883Z,3.83
2017-07-30T00:53:09.541Z,4.33
2017-07-30T00:55:37.074Z,4.43
2017-07-30T00:58:04.666Z,4.97
2017-07-30T01:00:32.229Z,4.20
2017-07-30T01:02:59.790Z,4.70
2017-07-30T01:05:27.443Z,4.33
2017-07-30T01:07:55.015Z,4.70
2017-07-30T01:10:22.542Z,4.40
2017-07-30T01:12:50.078Z,4.30
2017-07-30T01:15:18.410Z,4.13
2017-07-30T01:17:45.974Z,4.40
2017-07-30T01:20:13.527Z,4.50
2017-07-30T01:22:41.058Z,4.20
2017-07-30T01:25:09.487Z,4.70
2017-07-30T01:27:37.047Z,4.50
2017-07-30T01:30:04.598Z,4.73
2017-07-30T01:32:32.130Z,5.57
2017-07-30T01:34:59.727Z,4.57
2017-07-30T01:37:27.294Z,5.10
2017-07-30T01:39:54.828Z,4.60
2017-07-30T01:42:22.374Z,4.47
2017-07-30T01:44:49.958Z,4.77
2017-07-30T01:47:17.634Z,4.93
2017-07-30T01:49:45.159Z,5.17
2017-07-30T01:52:12.769Z,4.93
2017-07-30T01:54:40.293Z,4.97
2017-07-30T01:57:07.845Z,4.43
2017-07-30T01:59:35.374Z,5.00
2017-07-30T02:02:03.811Z,4.10
2017-07-30T02:04:31.365Z,4.27
2017-07-30T02:06:58.930Z,4.70
2017-07-30T02:09:26.486Z,4.00
2017-07-30T02:11:54.018Z,3.90
2017-07-30T02:14:21.591Z,4.53
2017-07-30T02:16:49.178Z,4.20
2017-07-30T02:19:16.731Z,4.73
2017-07-30T02:21:44.302Z,5.43
2017-07-30T02:24:11.958Z,4.77
2017-07-30T02:26:39.514Z,4.47
2017-07-30T02:29:07.064Z,4.70
2017-07-30T02:31:34.585Z,4.50
2017-07-30T02:34:02.152Z,5.07
2017-07-30T02:36:30.455Z,4.50
2017-07-30T02:38:58.039Z,4.50
2017-07-30T02:41:25.602Z,4.77
2017-07-30T02:43:53.130Z,4.63
2017-07-30T02:46:20.649Z,4.53
2017-07-30T02:48:48.490Z,4.77
2017-07-30T02:51:16.052Z,4.10
2017-07-30T02:53:43.606Z,4.30
2017-07-30T02:56:11.165Z,4.73
2017-07-30T02:58:38.738Z,4.73
2017-07-30T03:01:06.271Z,4.70
2017-07-30T03:03:33.858Z,4.50
2017-07-30T03:06:01.521Z,4.13
2017-07-30T03:08:29.049Z,4.87
2017-07-30T03:10:56.641Z,4.50
2017-07-30T03:13:24.199Z,4.53
2017-07-30T03:15:51.763Z,4.50
2017-07-30T03:18:19.329Z,4.37
2017-07-30T03:20:46.856Z,4.63
2017-07-30T03:23:14.438Z,4.83
2017-07-30T03:25:41.965Z,4.70
2017-07-30T03:28:10.286Z,4.43
2017-07-30T03:30:37.810Z,4.10
2017-07-30T03:33:05.403Z,4.23
2017-07-30T03:35:32.971Z,4.50
2017-07-30T03:38:00.535Z,5.20
2017-07-30T03:40:28.086Z,4.90
2017-07-30T03:42:55.751Z,4.60
2017-07-30T03:45:23.316Z,4.37
2017-07-30T03:47:50.866Z,4.60
2017-07-30T03:50:18.426Z,4.43
2017-07-30T03:52:46.014Z,4.37
2017-07-30T03:55:13.558Z,4.63
2017-07-30T03:57:41.090Z,4.40
2017-07-30T04:00:08.615Z,4.57
2017-07-30T04:02:36.171Z,4.10
2017-07-30T04:05:03.794Z,4.23
2017-07-30T04:07:31.391Z,4.70
2017-07-30T04:09:58.917Z,4.70
2017-07-30T04:12:26.487Z,4.47
2017-07-30T04:14:54.046Z,4.37
2017-07-30T04:17:21.582Z,4.37
2017-07-30T04:19:49.126Z,3.80
2017-07-30T04:22:16.717Z,4.17
2017-07-30T04:24:44.294Z,3.90
2017-07-30T04:27:11.836Z,4.30
2017-07-30T04:29:39.402Z,4.80
2017-07-30T04:32:06.976Z,4.60
2017-07-30T04:34:34.508Z,4.10
2017-07-30T04:37:02.099Z,4.57
2017-07-30T04:39:29.624Z,4.30
2017-07-30T04:41:57.150Z,3.93
2017-07-30T04:44:24.681Z,4.70
2017-07-30T04:46:52.234Z,4.60
2017-07-30T04:49:19.791Z,4.13
2017-07-30T04:51:47.343Z,4.20
2017-07-30T04:54:14.905Z,4.40
2017-07-30T04:56:42.576Z,5.23
2017-07-30T04:59:10.143Z,4.60
2017-07-30T05:01:37.665Z,4.50
2017-07-30T05:04:05.262Z,4.80
2017-07-30T05:06:32.803Z,5.20
2017-07-30T05:09:00.392Z,4.33
2017-07-30T05:11:27.939Z,4.50
2017-07-30T05:13:55.467Z,4.60
2017-07-30T05:19:16.639Z,4.90
2017-07-30T05:21:44.167Z,5.80
2017-07-30T05:24:11.767Z,5.50
2017-07-30T05:26:39.315Z,6.10
2017-07-30T05:29:06.865Z,5.30
2017-07-30T05:31:34.433Z,5.80
2017-07-30T05:34:02.106Z,4.77
2017-07-30T05:36:29.659Z,5.27
2017-07-30T05:38:57.194Z,4.13
2017-07-30T05:41:24.782Z,5.53
2017-07-30T05:43:52.339Z,4.50
2017-07-30T05:46:19.907Z,5.03
2017-07-30T05:48:47.457Z,4.67
2017-07-30T05:51:15.027Z,6.13
2017-07-30T05:53:42.557Z,4.87
2017-07-30T05:56:10.141Z,5.93
2017-07-30T05:58:37.714Z,5.33
2017-07-30T06:01:05.369Z,5.30
2017-07-30T06:03:32.938Z,5.27
2017-07-30T06:06:00.494Z,4.60
2017-07-30T06:08:28.022Z,4.90
2017-07-30T06:10:56.318Z,5.00
2017-07-30T06:13:23.841Z,4.70
2017-07-30T06:15:52.167Z,5.03
2017-07-30T06:18:19.729Z,5.20
2017-07-30T06:20:47.282Z,5.63
2017-07-30T06:23:14.849Z,5.00
2017-07-30T06:25:42.409Z,4.50
2017-07-30T06:28:09.971Z,4.60
2017-07-30T06:30:37.505Z,4.60
2017-07-30T06:33:05.090Z,4.40
2017-07-30T06:35:32.632Z,5.00
2017-07-30T06:38:00.214Z,4.10
2017-07-30T06:40:27.750Z,4.87
2017-07-30T06:42:55.333Z,5.13
2017-07-30T06:45:22.895Z,4.20
2017-07-30T06:47:50.466Z,4.53
2017-07-30T06:50:18.024Z,4.57
2017-07-30T06:52:45.567Z,4.60
2017-07-30T06:55:13.242Z,4.47
2017-07-30T06:57:40.818Z,4.67
2017-07-30T07:00:08.377Z,4.10
2017-07-30T07:02:35.902Z,4.50
2017-07-30T07:05:03.485Z,4.20
2017-07-30T07:07:31.018Z,4.60
2017-07-30T07:09:58.616Z,4.37
2017-07-30T07:12:26.174Z,3.50
2017-07-30T07:14:53.724Z,4.23
2017-07-30T07:17:21.290Z,4.20
2017-07-30T07:19:48.815Z,4.10
2017-07-30T07:22:17.134Z,3.83
2017-07-30T07:24:44.695Z,4.00
2017-07-30T07:27:12.254Z,3.93
2017-07-30T07:29:39.807Z,4.27
2017-07-30T07:32:07.490Z,3.73
2017-07-30T07:34:35.036Z,4.37
2017-07-30T07:37:02.589Z,4.00
2017-07-30T07:39:30.130Z,3.80
2017-07-30T07:41:57.690Z,3.97
2017-07-30T07:44:25.214Z,3.70
2017-07-30T07:46:52.796Z,4.33
2017-07-30T07:49:21.114Z,4.40
2017-07-30T07:51:48.675Z,4.23
2017-07-30T07:54:16.202Z,3.67
2017-07-30T07:56:43.746Z,3.60
2017-07-30T07:59:12.069Z,4.50
2017-07-30T08:01:39.631Z,3.67
2017-07-30T08:04:07.198Z,4.10
2017-07-30T08:06:34.770Z,4.33
2017-07-30T08:09:02.323Z,4.07
2017-07-30T08:11:29.878Z,4.00
2017-07-30T08:13:57.434Z,3.77
2017-07-30T08:16:25.006Z,3.73
2017-07-30T08:18:52.566Z,4.27
2017-07-30T08:21:20.123Z,4.00
2017-07-30T08:23:47.681Z,4.07
2017-07-30T08:26:15.210Z,3.90
2017-07-30T08:28:55.810Z,4.27
2017-07-30T08:31:23.342Z,4.10
2017-07-30T08:33:50.929Z,4.20
2017-07-30T08:36:18.490Z,4.10
2017-07-30T08:38:46.022Z,3.73
2017-07-30T08:41:13.618Z,3.90
2017-07-30T08:43:41.170Z,4.17
2017-07-30T08:46:08.735Z,3.80
2017-07-30T08:48:36.303Z,4.10
2017-07-30T08:51:03.834Z,3.80
2017-07-30T08:53:31.513Z,3.53
2017-07-30T08:55:59.183Z,3.83
2017-07-30T08:58:26.741Z,3.60
2017-07-30T09:00:54.298Z,4.00
2017-07-30T09:03:21.865Z,3.70
2017-07-30T09:05:49.399Z,3.97
2017-07-30T09:08:16.991Z,4.00
2017-07-30T09:10:44.524Z,3.80
2017-07-30T09:13:12.107Z,4.20
2017-07-30T09:15:39.829Z,4.10
2017-07-30T09:18:08.130Z,3.83
2017-07-30T09:20:35.719Z,4.50
2017-07-30T09:23:03.270Z,4.27
2017-07-30T09:25:30.830Z,4.20
2017-07-30T09:27:58.486Z,4.40
2017-07-30T09:30:26.049Z,4.17
2017-07-30T09:32:53.621Z,3.73
2017-07-30T09:35:21.174Z,4.00
2017-07-30T09:37:48.702Z,3.43
2017-07-30T09:40:16.396Z,3.47
2017-07-30T09:42:43.927Z,4.13
2017-07-30T09:45:12.239Z,4.50
2017-07-30T09:47:39.770Z,4.20
2017-07-30T09:50:07.369Z,4.43
2017-07-30T09:52:34.922Z,3.40
2017-07-30T09:55:02.487Z,3.43
2017-07-30T09:57:30.042Z,3.40
2017-07-30T09:59:57.613Z,3.30
2017-07-30T10:02:25.139Z,3.43
2017-07-30T10:04:52.676Z,3.43
2017-07-30T10:07:21.012Z,3.33
2017-07-30T10:09:48.563Z,3.43
2017-07-30T10:12:16.121Z,3.80
2017-07-30T10:14:43.682Z,3.80
2017-07-30T10:17:11.242Z,3.33
2017-07-30T10:19:38.806Z,3.20
2017-07-30T10:22:06.374Z,3.30
2017-07-30T10:24:33.902Z,3.53
2017-07-30T10:27:01.490Z,2.90
2017-07-30T10:29:29.057Z,2.70
2017-07-30T10:31:56.618Z,3.00
2017-07-30T10:34:24.141Z,2.97
2017-07-30T10:36:51.725Z,3.00
2017-07-30T10:39:19.290Z,2.83
2017-07-30T10:41:46.813Z,3.03
2017-07-30T10:44:15.223Z,2.80
2017-07-30T10:46:42.805Z,2.77
2017-07-30T10:49:10.364Z,2.97
2017-07-30T10:51:38.838Z,3.27
2017-07-30T10:54:06.397Z,2.70
2017-07-30T10:56:33.958Z,3.00
2017-07-30T10:59:01.494Z,2.67
2017-07-30T11:01:29.078Z,3.10
2017-07-30T11:03:56.746Z,2.90
2017-07-30T11:06:24.269Z,3.13
2017-07-30T11:08:51.866Z,3.17
2017-07-30T11:11:19.421Z,2.70
2017-07-30T11:13:46.980Z,2.50
2017-07-30T11:16:14.541Z,2.90
2017-07-30T11:18:42.107Z,3.10
2017-07-30T11:21:09.755Z,2.70
2017-07-30T11:23:37.328Z,3.00
2017-07-30T11:26:04.901Z,3.03
2017-07-30T11:28:32.452Z,3.07
2017-07-30T11:30:59.978Z,3.20
2017-07-30T11:33:27.571Z,2.97
2017-07-30T11:35:55.093Z,2.90
2017-07-30T11:38:23.411Z,3.40
2017-07-30T11:40:51.178Z,2.90
2017-07-30T11:43:18.706Z,3.27
2017-07-30T11:45:46.297Z,3.00
2017-07-30T11:48:13.863Z,2.90
2017-07-30T11:50:41.517Z,2.80
2017-07-30T11:53:09.289Z,3.10
2017-07-30T11:55:36.833Z,2.67
2017-07-30T11:58:04.397Z,3.30
2017-07-30T12:00:31.975Z,3.20
2017-07-30T12:02:59.497Z,3.13
2017-07-30T12:05:27.089Z,3.20
2017-07-30T12:07:54.629Z,2.73
2017-07-30T12:10:22.154Z,2.97
2017-07-30T12:12:49.769Z,3.00
2017-07-30T12:15:17.309Z,2.80
2017-07-30T12:17:44.890Z,2.97
2017-07-30T12:20:12.422Z,3.10
2017-07-30T12:22:39.955Z,2.83
2017-07-30T12:25:14.481Z,2.90
2017-07-30T12:27:42.098Z,2.70
2017-07-30T12:30:09.661Z,2.53
2017-07-30T12:32:37.409Z,2.67
2017-07-30T12:35:04.982Z,2.70
2017-07-30T12:37:32.550Z,3.17
2017-07-30T12:40:00.105Z,2.80
2017-07-30T12:42:27.666Z,3.13
2017-07-30T12:44:55.226Z,2.60
2017-07-30T12:47:22.786Z,2.70
2017-07-30T12:49:50.339Z,2.90
2017-07-30T12:52:17.913Z,3.00
2017-07-30T12:54:45.569Z,2.90
2017-07-30T12:57:13.089Z,2.70
2017-07-30T12:59:41.421Z,2.90
2017-07-30T13:02:08.978Z,3.23
2017-07-30T13:04:36.534Z,3.37
2017-07-30T13:07:04.094Z,3.13
2017-07-30T13:09:31.638Z,3.00
2017-07-30T13:11:59.220Z,3.13
2017-07-30T13:14:26.785Z,2.90
2017-07-30T13:16:54.334Z,3.40
2017-07-30T13:19:21.898Z,3.43
2017-07-30T13:21:49.447Z,3.00
2017-07-30T13:24:16.974Z,3.03
2017-07-30T13:26:45.381Z,3.47
2017-07-30T13:29:12.919Z,3.40
2017-07-30T13:31:41.338Z,3.07
2017-07-30T13:34:08.867Z,3.77
2017-07-30T13:36:36.462Z,3.03
2017-07-30T13:39:03.998Z,2.90
2017-07-30T13:41:31.526Z,3.17
2017-07-30T13:43:59.141Z,2.80
2017-07-30T13:46:26.705Z,3.20
2017-07-30T13:48:54.362Z,3.20
2017-07-30T13:51:21.882Z,3.00
2017-07-30T13:53:50.202Z,3.20
2017-07-30T13:56:17.767Z,3.50
2017-07-30T13:58:45.322Z,2.80
2017-07-30T14:01:12.881Z,3.17
2017-07-30T14:03:40.455Z,3.00
2017-07-30T14:06:08.001Z,3.40
2017-07-30T14:08:35.670Z,2.90
2017-07-30T14:11:03.229Z,2.87
2017-07-30T14:13:30.799Z,3.60
2017-07-30T14:15:58.355Z,3.00
2017-07-30T14:18:25.889Z,2.77
2017-07-30T14:20:53.418Z,3.40
2017-07-30T14:23:21.031Z,3.60
2017-07-30T14:25:48.594Z,3.43
2017-07-30T14:28:16.162Z,3.07
2017-07-30T14:30:43.686Z,3.47
2017-07-30T14:33:11.279Z,3.30
2017-07-30T14:35:38.842Z,2.80
2017-07-30T14:38:06.366Z,3.23
2017-07-30T14:40:34.055Z,3.23
2017-07-30T14:43:01.626Z,3.10
2017-07-30T14:45:29.382Z,3.40
2017-07-30T14:47:56.951Z,3.13
2017-07-30T14:50:24.605Z,3.10
2017-07-30T14:52:52.187Z,3.07
2017-07-30T14:55:19.710Z,3.10
2017-07-30T14:57:47.294Z,3.50
2017-07-30T15:00:14.850Z,3.47
2017-07-30T15:02:42.373Z,3.57
2017-07-30T15:05:10.690Z,3.93
2017-07-30T15:07:38.213Z,3.47
2017-07-30T15:10:06.533Z,3.67
2017-07-30T15:12:34.190Z,3.07
2017-07-30T15:15:01.754Z,3.47
2017-07-30T15:17:29.338Z,3.40
2017-07-30T15:19:56.873Z,3.53
2017-07-30T15:22:24.401Z,4.87
2017-07-30T15:24:52.717Z,10.00
2017-07-30T15:27:20.274Z,11.87
2017-07-30T15:29:47.806Z,12.60
2017-07-30T15:32:15.334Z,6.87
2017-07-30T15:34:42.957Z,4.33
2017-07-30T15:37:10.490Z,12.93
2017-07-30T15:39:38.079Z,9.57
2017-07-30T15:42:05.633Z,7.33
2017-07-30T15:44:33.193Z,4.30
2017-07-30T15:47:00.722Z,4.77
2017-07-30T15:49:29.030Z,4.67
2017-07-30T15:51:56.606Z,6.53
2017-07-30T15:54:24.154Z,4.80
2017-07-30T15:56:51.717Z,5.37
2017-07-30T15:59:19.265Z,3.63
2017-07-30T16:01:46.799Z,5.73
2017-07-30T16:04:15.141Z,3.07
2017-07-30T16:06:42.663Z,3.33
2017-07-30T16:09:10.186Z,2.97
2017-07-30T16:11:38.516Z,3.13
2017-07-30T16:14:06.088Z,2.80
2017-07-30T16:16:33.648Z,3.13
2017-07-30T16:19:01.170Z,3.10
2017-07-30T16:21:28.697Z,3.00
2017-07-30T16:23:56.317Z,2.33
2017-07-30T16:26:23.878Z,2.50
2017-07-30T16:28:51.437Z,2.73
2017-07-30T16:31:18.965Z,2.17
2017-07-30T16:33:47.279Z,2.40
2017-07-30T16:36:14.834Z,3.00
2017-07-30T16:38:42.357Z,2.60
2017-07-30T16:41:10.777Z,2.40
2017-07-30T16:43:38.301Z,2.40
2017-07-30T16:46:06.618Z,2.60
2017-07-30T16:48:34.177Z,2.50
2017-07-30T16:51:01.841Z,2.30
2017-07-30T16:53:29.401Z,2.57
2017-07-30T16:55:56.931Z,2.40
2017-07-30T16:58:24.453Z,2.87
2017-07-30T17:00:52.086Z,2.30
2017-07-30T17:03:19.641Z,2.63
2017-07-30T17:05:47.215Z,2.40
2017-07-30T17:08:14.837Z,2.20
2017-07-30T17:10:42.367Z,2.40
2017-07-30T17:13:09.994Z,2.40
2017-07-30T17:15:37.558Z,2.60
2017-07-30T17:18:05.214Z,3.00
2017-07-30T17:20:32.776Z,2.77
2017-07-30T17:23:00.451Z,2.40
2017-07-30T17:25:27.974Z,2.00
2017-07-30T17:27:55.570Z,2.30
2017-07-30T17:30:23.221Z,2.50
2017-07-30T17:32:50.894Z,2.33
2017-07-30T17:35:18.450Z,2.43
2017-07-30T17:37:46.114Z,2.43
2017-07-30T17:40:13.771Z,2.67
2017-07-30T17:42:41.304Z,2.23
2017-07-30T17:45:08.834Z,2.40
2017-07-30T17:47:36.450Z,2.57
2017-07-30T17:50:04.019Z,2.40
2017-07-30T17:52:31.546Z,2.30
2017-07-30T17:54:59.141Z,2.50
2017-07-30T17:57:26.666Z,2.43
2017-07-30T17:59:55.081Z,3.00
2017-07-30T18:02:22.610Z,2.53
2017-07-30T18:04:50.201Z,2.60
2017-07-30T18:07:18.531Z,2.40
2017-07-30T18:09:46.851Z,2.80
2017-07-30T18:12:14.369Z,2.97
2017-07-30T18:14:42.799Z,2.57
2017-07-30T18:17:10.359Z,2.70
2017-07-30T18:19:37.886Z,2.50
2017-07-30T18:22:05.477Z,2.60
2017-07-30T18:24:33.015Z,2.40
2017-07-30T18:27:00.570Z,2.67
2017-07-30T18:29:28.157Z,2.77
2017-07-30T18:31:55.706Z,2.73
2017-07-30T18:34:23.278Z,2.67
2017-07-30T18:36:50.846Z,2.83
2017-07-30T18:39:18.401Z,3.30
2017-07-30T18:41:45.961Z,2.70
2017-07-30T18:44:13.531Z,3.10
2017-07-30T18:46:41.190Z,2.70
2017-07-30T18:49:08.747Z,3.20
2017-07-30T18:51:36.310Z,2.77
2017-07-30T18:54:03.882Z,2.70
2017-07-30T18:56:31.406Z,3.60
2017-07-30T18:58:58.989Z,2.70
2017-07-30T19:01:26.548Z,2.67
2017-07-30T19:03:54.122Z,3.00
2017-07-30T19:06:21.663Z,2.50
2017-07-30T19:08:49.238Z,2.53
2017-07-30T19:11:16.765Z,2.47
2017-07-30T19:13:44.355Z,2.10
2017-07-30T19:16:11.920Z,2.40
2017-07-30T19:18:39.507Z,2.10
2017-07-30T19:21:07.141Z,2.40
2017-07-30T19:23:34.716Z,2.50
2017-07-30T19:26:02.253Z,2.10
2017-07-30T19:28:29.822Z,2.30
2017-07-30T19:30:57.370Z,2.10
2017-07-30T19:33:24.959Z,2.20
2017-07-30T19:35:52.512Z,2.53
2017-07-30T19:38:20.033Z,2.50
2017-07-30T19:40:47.626Z,4.20
2017-07-30T19:43:15.189Z,4.43
2017-07-30T19:45:42.753Z,2.77
2017-07-30T19:48:10.289Z,2.90
2017-07-30T19:50:37.869Z,2.23
2017-07-30T19:53:05.429Z,3.10
2017-07-30T19:55:32.999Z,3.43
2017-07-30T19:58:00.550Z,2.33
2017-07-30T20:00:28.213Z,2.73
2017-07-30T20:02:55.775Z,2.40
2017-07-30T20:05:23.346Z,2.57
2017-07-30T20:07:50.903Z,3.13
2017-07-30T20:10:18.431Z,3.00
2017-07-30T20:12:46.026Z,2.50
2017-07-30T20:15:13.590Z,2.43
2017-07-30T20:17:41.250Z,3.57
2017-07-30T20:20:08.783Z,2.53
2017-07-30T20:22:36.302Z,2.80
2017-07-30T20:25:03.942Z,2.77
2017-07-30T20:27:31.490Z,2.70
2017-07-30T20:29:59.047Z,3.00
2017-07-30T20:32:26.610Z,2.63
2017-07-30T20:34:54.174Z,3.30
2017-07-30T20:37:21.725Z,3.10
2017-07-30T20:39:49.291Z,2.50
2017-07-30T20:42:16.858Z,2.60
2017-07-30T20:44:44.415Z,2.83
2017-07-30T20:47:11.945Z,3.20
2017-07-30T20:49:39.533Z,3.67
2017-07-30T20:52:07.095Z,3.87
2017-07-30T20:54:34.653Z,3.37
2017-07-30T20:57:02.183Z,3.40
2017-07-30T20:59:30.494Z,3.53
2017-07-30T21:01:58.013Z,3.97
2017-07-30T21:04:26.330Z,3.23
2017-07-30T21:06:53.858Z,2.93
2017-07-30T21:09:22.175Z,2.87
2017-07-30T21:11:49.737Z,3.07
2017-07-30T21:14:17.310Z,2.87
2017-07-30T21:16:44.838Z,3.00
2017-07-30T21:19:12.369Z,3.03
2017-07-30T21:21:40.656Z,2.90
2017-07-30T21:24:08.970Z,3.40
2017-07-30T21:26:36.498Z,2.80
2017-07-30T21:29:04.806Z,3.57
2017-07-30T21:31:32.368Z,2.90
2017-07-30T21:33:59.928Z,3.20
2017-07-30T21:36:27.495Z,2.80
2017-07-30T21:38:55.050Z,2.80
2017-07-30T21:41:22.582Z,2.87
2017-07-30T21:43:50.164Z,3.13
2017-07-30T21:46:17.732Z,3.30
2017-07-30T21:48:45.275Z,2.83
2017-07-30T21:51:12.841Z,2.83
2017-07-30T21:53:40.535Z,3.10
2017-07-30T21:56:08.186Z,2.57
2017-07-30T21:58:35.765Z,2.70
2017-07-30T22:01:03.347Z,2.63
2017-07-30T22:03:31.681Z,2.77
2017-07-30T22:05:59.243Z,3.00
2017-07-30T22:08:26.776Z,2.80
2017-07-30T22:10:54.328Z,2.67
2017-07-30T22:13:22.654Z,3.10
2017-07-30T22:15:50.216Z,2.80
2017-07-30T22:18:17.774Z,2.93
2017-07-30T22:20:45.355Z,2.30
2017-07-30T22:23:12.939Z,3.07
2017-07-30T22:25:41.238Z,2.90
2017-07-30T22:28:08.870Z,3.00
2017-07-30T22:30:36.410Z,2.60
2017-07-30T22:33:03.992Z,2.60
2017-07-30T22:35:31.616Z,2.80
2017-07-30T22:37:59.168Z,2.90
2017-07-30T22:40:26.706Z,2.77
2017-07-30T22:42:54.309Z,2.83
2017-07-30T22:45:21.876Z,3.57
2017-07-30T22:47:49.866Z,3.00
2017-07-30T22:50:17.425Z,2.60
2017-07-30T22:52:44.983Z,2.80
2017-07-30T22:55:12.543Z,2.83
2017-07-30T22:57:40.118Z,2.90
2017-07-30T23:00:07.733Z,2.97
2017-07-30T23:02:35.294Z,2.90
2017-07-30T23:05:02.864Z,3.00
2017-07-30T23:07:30.429Z,3.20
2017-07-30T23:09:57.974Z,3.10
2017-07-30T23:12:25.539Z,3.13
2017-07-30T23:14:53.088Z,3.50
2017-07-30T23:17:20.683Z,3.07
2017-07-30T23:19:48.217Z,3.03
2017-07-30T23:22:15.791Z,3.60
2017-07-30T23:24:43.362Z,3.00
2017-07-30T23:27:11.008Z,3.13
2017-07-30T23:29:38.566Z,3.40
2017-07-30T23:32:06.262Z,3.03
2017-07-30T23:34:33.831Z,2.90
2017-07-30T23:37:01.481Z,2.87
2017-07-30T23:39:29.023Z,2.90
2017-07-30T23:41:56.598Z,3.33
2017-07-30T23:44:24.143Z,3.30
2017-07-30T23:46:51.754Z,3.07
2017-07-30T23:49:20.054Z,3.93
2017-07-30T23:51:47.606Z,3.53
2017-07-30T23:54:15.251Z,3.87
2017-07-30T23:56:43.599Z,3.40
2017-07-30T23:59:11.157Z,3.00
